Time;durP1;ratioP1;P1;durP2;ratioP2;P2;SDS_P1;SDS_P2;PMS_P1;PMS_P2;Temp;Humidity;BMP_temperature;BMP_pressure;BME280_temperature;BME280_humidity;BME280_pressure;Samples;Min_cycle;Max_cycle;Signal;HPM_P1;HPM_P2
2023/03/13 00:01:15;;;;;;;15.47;6.77;;;6.80;99.90;;;;;;5067656;28;20168;-76
2023/03/13 00:03:41;;;;;;;13.53;6.87;;;6.80;99.90;;;;;;5073918;28;20271;-79
2023/03/13 00:06:07;;;;;;;14.53;7.33;;;6.80;99.90;;;;;;5059265;28;20219;-76
2023/03/13 00:08:32;;;;;;;14.93;7.20;;;6.80;99.90;;;;;;5070764;28;20207;-80
2023/03/13 00:11:05;;;;;;;13.70;7.30;;;6.90;99.90;;;;;;5060327;28;20180;-78
2023/03/13 00:13:31;;;;;;;11.70;6.43;;;6.90;99.90;;;;;;5061509;28;20163;-77
2023/03/13 00:16:08;;;;;;;15.80;6.73;;;6.90;99.90;;;;;;5070142;28;20264;-77
2023/03/13 00:18:34;;;;;;;12.67;6.70;;;6.90;99.90;;;;;;5062616;28;20199;-77
2023/03/13 00:21:02;;;;;;;15.97;7.57;;;6.90;99.90;;;;;;5050797;28;20278;-76
2023/03/13 00:23:28;;;;;;;18.17;6.83;;;6.90;99.90;;;;;;5067131;28;20257;-77
2023/03/13 00:26:06;;;;;;;12.60;6.87;;;6.90;99.90;;;;;;5078023;28;20195;-74
2023/03/13 00:28:33;;;;;;;17.00;6.70;;;6.90;99.90;;;;;;5073070;28;20183;-78
2023/03/13 00:31:05;;;;;;;10.60;7.40;;;7.00;99.90;;;;;;5053806;28;20203;-76
2023/03/13 00:33:36;;;;;;;17.87;8.00;;;7.00;99.90;;;;;;5069231;28;20250;-78
2023/03/13 00:36:13;;;;;;;19.67;7.60;;;7.00;99.90;;;;;;5048890;28;21016;-76
2023/03/13 00:38:39;;;;;;;18.47;7.40;;;7.10;99.90;;;;;;5069389;28;20203;-78
2023/03/13 00:41:13;;;;;;;18.03;7.30;;;7.10;99.90;;;;;;5054807;28;20250;-78
2023/03/13 00:43:41;;;;;;;20.97;7.10;;;7.20;99.90;;;;;;5056539;28;20180;-77
2023/03/13 00:46:07;;;;;;;16.50;6.83;;;7.20;99.90;;;;;;5070744;28;20721;-77
2023/03/13 00:48:33;;;;;;;13.70;7.27;;;7.20;99.90;;;;;;5069451;28;20206;-77
2023/03/13 00:51:00;;;;;;;19.57;6.47;;;7.20;99.90;;;;;;5073069;28;20223;-77
2023/03/13 00:53:26;;;;;;;16.07;7.87;;;7.20;99.90;;;;;;5071808;28;20206;-77
2023/03/13 00:55:55;;;;;;;17.90;7.53;;;7.20;99.90;;;;;;5055404;28;20268;-77
2023/03/13 00:58:22;;;;;;;20.07;7.03;;;7.10;99.90;;;;;;5072750;28;20179;-77
2023/03/13 01:00:48;;;;;;;19.70;7.63;;;7.10;99.90;;;;;;5072016;28;20199;-77
2023/03/13 01:03:15;;;;;;;15.00;7.00;;;7.10;99.90;;;;;;5072286;28;20206;-77
2023/03/13 01:05:40;;;;;;;15.90;6.93;;;7.10;99.90;;;;;;5055118;28;20690;-77
2023/03/13 01:08:06;;;;;;;12.80;7.27;;;7.10;99.90;;;;;;5053473;28;20206;-77
2023/03/13 01:10:32;;;;;;;19.03;7.77;;;7.10;99.90;;;;;;5050764;28;20677;-77
2023/03/13 01:12:57;;;;;;;17.03;7.27;;;7.10;99.90;;;;;;5071452;28;20195;-77
2023/03/13 01:15:23;;;;;;;12.07;6.90;;;7.20;99.90;;;;;;5054606;28;20210;-77
2023/03/13 01:17:49;;;;;;;18.90;7.53;;;7.10;99.90;;;;;;5072408;28;20210;-78
2023/03/13 01:20:15;;;;;;;17.27;8.07;;;7.20;99.90;;;;;;5055806;28;20215;-75
2023/03/13 01:22:40;;;;;;;19.30;8.83;;;7.20;99.90;;;;;;5077016;28;20221;-77
2023/03/13 01:25:07;;;;;;;14.33;8.03;;;7.20;99.90;;;;;;5072535;28;20613;-76
2023/03/13 01:27:32;;;;;;;15.43;7.33;;;7.20;99.90;;;;;;5071987;28;20203;-77
2023/03/13 01:29:58;;;;;;;17.87;7.37;;;7.20;99.90;;;;;;5049316;28;20206;-76
2023/03/13 01:32:23;;;;;;;12.27;6.87;;;7.20;99.90;;;;;;5048024;28;20203;-76
2023/03/13 01:34:49;;;;;;;14.50;8.20;;;7.20;99.90;;;;;;5051176;28;20218;-76
2023/03/13 01:37:15;;;;;;;20.70;7.13;;;7.20;99.90;;;;;;5071604;28;20191;-76
2023/03/13 01:39:40;;;;;;;23.60;7.80;;;7.20;99.90;;;;;;5052241;28;20199;-76
2023/03/13 01:42:06;;;;;;;17.70;7.03;;;7.20;99.90;;;;;;5061373;28;20218;-77
2023/03/13 01:44:51;;;;;;;17.80;6.80;;;7.20;99.90;;;;;;5051974;28;20786;-76
2023/03/13 01:47:16;;;;;;;17.37;6.80;;;7.20;99.90;;;;;;5068985;28;20293;-77
2023/03/13 01:49:43;;;;;;;18.27;6.67;;;7.20;99.90;;;;;;5052114;28;20329;-77
2023/03/13 01:52:09;;;;;;;12.63;6.43;;;7.20;99.90;;;;;;5052863;28;20232;-77
2023/03/13 01:54:40;;;;;;;13.63;6.80;;;7.20;99.90;;;;;;5051838;28;20732;-76
2023/03/13 01:57:20;;;;;;;16.27;7.67;;;7.20;99.90;;;;;;5070767;28;20217;-76
2023/03/13 01:59:52;;;;;;;11.20;6.60;;;7.30;99.90;;;;;;5070168;28;20677;-76
2023/03/13 02:02:19;;;;;;;18.20;7.03;;;7.30;99.90;;;;;;5066493;28;20744;-77
2023/03/13 02:04:47;;;;;;;17.93;6.53;;;7.30;99.90;;;;;;5052144;28;20673;-77
2023/03/13 02:07:18;;;;;;;13.03;6.40;;;7.30;99.90;;;;;;5051236;28;20239;-78
2023/03/13 02:09:50;;;;;;;17.53;7.00;;;7.30;99.90;;;;;;5064386;28;20218;-77
2023/03/13 02:12:34;;;;;;;17.37;6.13;;;7.30;99.90;;;;;;5053806;28;20211;-77
2023/03/13 02:15:06;;;;;;;11.97;5.77;;;7.30;99.90;;;;;;5049576;28;20216;-77
2023/03/13 02:17:34;;;;;;;15.47;6.37;;;7.30;99.90;;;;;;5068003;28;20199;-77
2023/03/13 02:20:00;;;;;;;15.07;6.30;;;7.30;99.90;;;;;;5050571;28;20541;-77
2023/03/13 02:22:44;;;;;;;12.77;6.20;;;7.30;99.90;;;;;;5060053;28;20175;-76
2023/03/13 02:25:34;;;;;;;11.50;6.33;;;7.30;99.90;;;;;;5053645;28;20294;-77
2023/03/13 02:28:04;;;;;;;12.83;6.80;;;7.30;99.90;;;;;;5067042;28;20211;-76
2023/03/13 02:30:30;;;;;;;12.80;6.17;;;7.30;99.90;;;;;;5043973;28;20287;-78
2023/03/13 02:32:56;;;;;;;14.47;6.07;;;7.30;99.90;;;;;;5064377;28;20584;-77
2023/03/13 02:35:23;;;;;;;18.00;6.27;;;7.30;99.90;;;;;;5060718;28;20211;-78
2023/03/13 02:37:59;;;;;;;11.37;5.80;;;7.30;99.90;;;;;;5053092;28;20543;-77
2023/03/13 02:40:29;;;;;;;15.00;5.67;;;7.30;99.90;;;;;;5065354;28;20186;-78
2023/03/13 02:42:58;;;;;;;12.70;5.43;;;7.30;99.90;;;;;;5048461;28;20204;-76
2023/03/13 02:45:24;;;;;;;13.23;6.00;;;7.30;99.90;;;;;;5048720;28;20298;-76
2023/03/13 02:47:50;;;;;;;13.15;6.70;;;7.30;99.90;;;;;;5066969;28;20442;-76
2023/03/13 02:50:16;;;;;;;14.23;6.17;;;7.30;99.90;;;;;;5052755;28;20219;-77
2023/03/13 02:52:48;;;;;;;11.83;5.57;;;7.40;99.90;;;;;;5066384;28;20671;-76
2023/03/13 02:55:35;;;;;;;13.90;5.93;;;7.40;99.90;;;;;;5068075;28;20263;-76
2023/03/13 02:58:01;;;;;;;11.97;5.40;;;7.40;99.90;;;;;;5049414;28;20212;-76
2023/03/13 03:00:27;;;;;;;16.17;5.90;;;7.40;99.90;;;;;;5050500;28;20226;-77
2023/03/13 03:02:53;;;;;;;15.07;5.27;;;7.40;99.90;;;;;;5068027;28;20272;-77
2023/03/13 03:05:20;;;;;;;16.70;6.07;;;7.50;99.90;;;;;;5052386;28;20792;-75
2023/03/13 03:07:46;;;;;;;18.23;5.43;;;7.50;99.90;;;;;;5068780;28;20329;-76
2023/03/13 03:10:12;;;;;;;16.33;5.30;;;7.50;99.90;;;;;;5053606;28;20309;-76
2023/03/13 03:12:38;;;;;;;13.63;5.13;;;7.50;99.90;;;;;;5064128;28;20209;-77
2023/03/13 03:15:04;;;;;;;11.37;5.00;;;7.50;99.90;;;;;;5050118;28;20215;-78
2023/03/13 03:17:30;;;;;;;12.93;4.47;;;7.60;99.90;;;;;;5052222;28;20256;-77
2023/03/13 03:19:55;;;;;;;12.23;4.57;;;7.60;99.90;;;;;;5068004;28;20281;-74
2023/03/13 03:22:22;;;;;;;13.67;5.03;;;7.60;99.90;;;;;;5049449;28;20270;-77
2023/03/13 03:24:47;;;;;;;13.67;5.20;;;7.60;99.90;;;;;;5050848;28;20211;-75
2023/03/13 03:27:13;;;;;;;11.73;5.20;;;7.60;99.90;;;;;;5052106;28;20226;-76
2023/03/13 03:29:39;;;;;;;13.70;4.47;;;7.60;99.90;;;;;;5053059;28;20219;-76
2023/03/13 03:32:04;;;;;;;11.37;4.40;;;7.60;99.90;;;;;;5065998;28;20230;-76
2023/03/13 03:34:30;;;;;;;13.97;4.80;;;7.60;99.90;;;;;;5067623;28;20275;-76
2023/03/13 03:36:56;;;;;;;13.60;5.10;;;7.60;99.90;;;;;;5047070;28;20204;-74
2023/03/13 03:39:22;;;;;;;15.23;5.77;;;7.60;99.90;;;;;;5064071;28;20209;-77
2023/03/13 03:41:48;;;;;;;23.63;4.80;;;7.70;99.90;;;;;;5071142;28;20202;-76
2023/03/13 03:44:13;;;;;;;12.97;5.40;;;7.60;99.90;;;;;;5067274;28;20212;-75
2023/03/13 03:46:39;;;;;;;15.33;4.80;;;7.70;99.90;;;;;;5053036;28;20198;-76
2023/03/13 03:49:05;;;;;;;14.20;4.77;;;7.70;99.90;;;;;;5057366;28;20283;-76
2023/03/13 03:51:30;;;;;;;12.67;4.37;;;7.70;99.90;;;;;;5049984;28;20671;-76
2023/03/13 03:53:56;;;;;;;15.53;5.30;;;7.70;99.90;;;;;;5053404;28;20713;-74
2023/03/13 03:56:22;;;;;;;14.73;4.40;;;7.70;99.90;;;;;;5070432;28;20218;-76
2023/03/13 03:58:47;;;;;;;16.53;5.07;;;7.70;99.90;;;;;;5066691;28;20186;-77
2023/03/13 04:01:13;;;;;;;12.20;4.57;;;7.70;99.90;;;;;;5057043;28;20220;-77
2023/03/13 04:03:38;;;;;;;10.47;4.83;;;7.80;99.90;;;;;;5076442;28;20213;-76
2023/03/13 04:06:05;;;;;;;13.47;4.80;;;7.80;99.90;;;;;;5068855;28;20649;-78
2023/03/13 04:08:31;;;;;;;14.03;5.13;;;7.80;99.90;;;;;;5068982;28;20239;-76
2023/03/13 04:10:58;;;;;;;14.23;4.90;;;7.80;99.90;;;;;;5063659;28;20215;-75
2023/03/13 04:13:24;;;;;;;15.63;4.87;;;7.80;99.90;;;;;;5058183;28;20228;-76
2023/03/13 04:15:50;;;;;;;16.63;4.43;;;7.80;99.90;;;;;;5056578;28;20617;-76
2023/03/13 04:18:15;;;;;;;13.03;4.37;;;7.80;99.90;;;;;;5056188;28;20833;-77
2023/03/13 04:20:41;;;;;;;14.83;5.00;;;7.80;99.90;;;;;;5069115;28;20218;-77
2023/03/13 04:23:06;;;;;;;11.47;4.70;;;7.80;99.90;;;;;;5067682;28;20591;-76
2023/03/13 04:25:32;;;;;;;17.53;5.10;;;7.80;99.90;;;;;;5072923;28;20206;-76
2023/03/13 04:27:58;;;;;;;15.60;4.53;;;7.80;99.90;;;;;;5070079;28;20231;-76
2023/03/13 04:30:23;;;;;;;15.73;4.67;;;7.90;99.90;;;;;;5050847;28;20223;-77
2023/03/13 04:32:49;;;;;;;17.57;5.37;;;7.80;99.90;;;;;;5062990;28;20221;-77
2023/03/13 04:35:16;;;;;;;12.67;5.03;;;7.90;99.90;;;;;;5072268;28;20263;-77
2023/03/13 04:37:42;;;;;;;21.30;4.97;;;7.80;99.90;;;;;;5071703;28;20689;-72
2023/03/13 04:40:08;;;;;;;15.50;4.47;;;7.80;99.90;;;;;;5070021;28;20740;-76
2023/03/13 04:42:34;;;;;;;23.00;5.40;;;7.80;99.90;;;;;;5069933;28;20293;-77
2023/03/13 04:45:00;;;;;;;15.40;4.50;;;7.90;99.90;;;;;;5066168;28;20280;-76
2023/03/13 04:47:25;;;;;;;16.10;4.27;;;7.90;99.90;;;;;;5071778;28;20215;-77
2023/03/13 04:49:51;;;;;;;14.77;4.77;;;7.90;99.90;;;;;;5056275;28;20209;-76
2023/03/13 04:52:16;;;;;;;10.67;4.10;;;7.90;99.90;;;;;;5067213;28;20186;-77
2023/03/13 04:54:42;;;;;;;12.60;4.70;;;7.80;99.90;;;;;;5052984;28;20219;-76
2023/03/13 04:57:07;;;;;;;17.40;5.27;;;7.90;99.90;;;;;;5054518;28;20221;-77
2023/03/13 04:59:33;;;;;;;19.83;5.30;;;7.90;99.90;;;;;;5072418;28;20410;-76
2023/03/13 05:01:59;;;;;;;15.70;5.07;;;7.90;99.90;;;;;;5069054;28;20254;-76
2023/03/13 05:04:24;;;;;;;17.73;5.20;;;7.90;99.90;;;;;;5073155;28;20175;-76
2023/03/13 05:06:50;;;;;;;13.37;4.33;;;7.90;99.90;;;;;;5054870;28;20211;-76
2023/03/13 05:09:15;;;;;;;19.80;4.67;;;7.90;99.90;;;;;;5070015;28;20303;-77
2023/03/13 05:11:41;;;;;;;16.47;4.07;;;7.90;99.90;;;;;;5068867;28;20690;-76
2023/03/13 05:14:09;;;;;;;18.17;4.67;;;7.90;99.90;;;;;;5066386;28;20594;-76
2023/03/13 05:16:36;;;;;;;19.20;4.60;;;7.90;99.90;;;;;;5053718;28;20195;-76
2023/03/13 05:19:02;;;;;;;16.60;4.13;;;7.90;99.90;;;;;;5068999;28;20286;-76
2023/03/13 05:21:27;;;;;;;19.30;4.50;;;7.90;99.90;;;;;;5068672;28;20286;-77
2023/03/13 05:23:53;;;;;;;14.23;3.80;;;7.90;99.90;;;;;;5052549;28;20660;-76
2023/03/13 05:26:18;;;;;;;11.83;4.10;;;7.90;99.90;;;;;;5065562;28;20727;-76
2023/03/13 05:28:44;;;;;;;19.03;5.53;;;7.90;99.90;;;;;;5068844;28;20205;-76
2023/03/13 05:31:10;;;;;;;17.43;4.30;;;7.90;99.90;;;;;;5069651;28;20215;-76
2023/03/13 05:33:35;;;;;;;20.57;4.37;;;7.90;99.90;;;;;;5046769;28;20239;-76
2023/03/13 05:36:01;;;;;;;15.10;4.40;;;7.90;99.90;;;;;;5065955;28;20216;-77
2023/03/13 05:38:27;;;;;;;17.23;5.00;;;7.90;99.90;;;;;;5047066;28;20206;-77
2023/03/13 05:40:52;;;;;;;17.97;4.20;;;7.90;99.90;;;;;;5070942;28;20548;-76
2023/03/13 05:43:18;;;;;;;15.00;4.87;;;8.00;99.90;;;;;;5066221;28;20629;-77
2023/03/13 05:45:43;;;;;;;18.73;5.20;;;8.00;99.90;;;;;;5052211;28;20203;-77
2023/03/13 05:48:09;;;;;;;16.97;4.40;;;8.00;99.90;;;;;;5063279;28;20203;-77
2023/03/13 05:50:35;;;;;;;19.17;5.17;;;8.00;99.90;;;;;;5066461;28;20832;-77
2023/03/13 05:53:00;;;;;;;24.37;5.33;;;8.00;99.90;;;;;;5052662;28;20202;-76
2023/03/13 05:55:26;;;;;;;16.07;4.47;;;8.00;99.90;;;;;;5068352;28;20233;-77
2023/03/13 05:57:51;;;;;;;19.40;4.60;;;8.00;99.90;;;;;;5051736;28;20244;-79
2023/03/13 06:00:18;;;;;;;17.00;5.17;;;8.00;99.90;;;;;;5044898;28;20237;-76
2023/03/13 06:02:44;;;;;;;23.00;4.70;;;8.00;99.90;;;;;;5055409;28;20207;-76
2023/03/13 06:05:10;;;;;;;19.97;4.83;;;8.00;99.90;;;;;;5068546;28;20219;-77
2023/03/13 06:07:36;;;;;;;16.40;5.07;;;8.00;99.90;;;;;;5054182;28;20186;-78
2023/03/13 06:10:03;;;;;;;21.37;6.00;;;8.00;99.90;;;;;;5063739;28;20261;-77
2023/03/13 06:12:29;;;;;;;14.40;4.57;;;8.00;99.90;;;;;;5046761;28;20235;-77
2023/03/13 06:14:54;;;;;;;18.13;4.43;;;8.00;99.90;;;;;;5062824;28;20253;-77
2023/03/13 06:17:20;;;;;;;19.13;4.27;;;8.00;99.90;;;;;;5060907;28;20199;-77
2023/03/13 06:19:46;;;;;;;16.97;4.63;;;8.00;99.90;;;;;;5050756;28;20175;-76
2023/03/13 06:22:12;;;;;;;17.83;5.13;;;8.00;99.90;;;;;;5063567;28;20180;-76
2023/03/13 06:24:38;;;;;;;23.90;4.80;;;8.00;99.90;;;;;;5066146;28;20214;-76
2023/03/13 06:27:04;;;;;;;13.03;4.77;;;8.00;99.90;;;;;;5046561;28;20206;-76
2023/03/13 06:29:29;;;;;;;21.10;5.00;;;8.00;99.90;;;;;;5051061;28;20704;-77
2023/03/13 06:31:55;;;;;;;13.60;4.10;;;8.00;99.90;;;;;;5049388;28;20187;-76
2023/03/13 06:34:20;;;;;;;19.97;4.70;;;8.00;99.90;;;;;;5042344;28;20176;-77
2023/03/13 06:36:46;;;;;;;16.23;4.70;;;8.10;99.90;;;;;;5059601;28;20213;-76
2023/03/13 06:39:12;;;;;;;17.90;5.17;;;8.10;99.90;;;;;;5060664;28;20583;-77
2023/03/13 06:41:37;;;;;;;18.53;5.23;;;8.10;99.90;;;;;;5050578;28;20244;-77
2023/03/13 06:44:04;;;;;;;18.73;4.73;;;8.10;99.90;;;;;;5059052;28;20199;-76
2023/03/13 06:46:30;;;;;;;17.47;4.83;;;8.10;99.90;;;;;;5061118;28;20195;-77
2023/03/13 06:48:57;;;;;;;13.80;4.63;;;8.20;99.90;;;;;;5047244;28;20567;-77
2023/03/13 06:51:22;;;;;;;23.87;5.07;;;8.20;99.90;;;;;;5062589;28;20271;-77
2023/03/13 06:53:48;;;;;;;14.07;4.40;;;8.20;99.90;;;;;;5060047;28;20248;-77
2023/03/13 06:56:14;;;;;;;15.70;4.87;;;8.20;99.90;;;;;;5059702;28;20646;-77
2023/03/13 06:58:40;;;;;;;20.27;4.73;;;8.30;99.90;;;;;;5041307;28;20556;-77
2023/03/13 07:01:07;;;;;;;16.87;4.93;;;8.30;99.90;;;;;;5042927;28;20283;-77
2023/03/13 07:03:33;;;;;;;16.73;4.17;;;8.30;99.90;;;;;;5067951;28;20209;-78
2023/03/13 07:05:59;;;;;;;14.27;4.93;;;8.30;99.90;;;;;;5047885;28;20700;-77
2023/03/13 07:08:25;;;;;;;16.43;4.70;;;8.30;99.90;;;;;;5043474;28;20214;-78
2023/03/13 07:10:51;;;;;;;20.57;5.00;;;8.30;99.90;;;;;;5061330;28;20260;-77
2023/03/13 07:13:20;;;;;;;17.17;5.53;;;8.40;99.90;;;;;;5048211;28;20179;-78
2023/03/13 07:15:47;;;;;;;19.90;5.40;;;8.40;99.90;;;;;;5049462;28;20203;-78
2023/03/13 07:18:13;;;;;;;17.27;4.43;;;8.50;99.90;;;;;;5058311;28;20257;-77
2023/03/13 07:20:38;;;;;;;20.17;4.63;;;8.50;99.90;;;;;;5046626;28;20207;-77
2023/03/13 07:23:04;;;;;;;18.77;4.53;;;8.60;99.90;;;;;;5058656;28;20238;-78
2023/03/13 07:25:29;;;;;;;15.67;5.47;;;8.60;99.90;;;;;;5063179;28;20260;-78
2023/03/13 07:27:55;;;;;;;19.30;4.77;;;8.60;99.90;;;;;;5058559;28;20267;-77
2023/03/13 07:30:21;;;;;;;22.20;5.27;;;8.60;99.90;;;;;;5058513;28;20310;-77
2023/03/13 07:32:46;;;;;;;16.13;4.87;;;8.50;99.90;;;;;;5063743;28;20215;-75
2023/03/13 07:35:12;;;;;;;20.77;4.67;;;8.60;99.90;;;;;;5062213;28;20230;-77
2023/03/13 07:37:38;;;;;;;16.70;4.73;;;8.60;99.90;;;;;;5050659;28;20171;-77
2023/03/13 07:40:04;;;;;;;16.57;5.13;;;8.60;99.90;;;;;;5043919;28;20589;-77
2023/03/13 07:42:30;;;;;;;17.93;4.30;;;8.70;99.90;;;;;;5061071;28;20211;-76
2023/03/13 07:44:55;;;;;;;18.10;5.23;;;8.70;99.90;;;;;;5045562;28;20736;-78
2023/03/13 07:47:21;;;;;;;18.03;5.37;;;8.80;99.90;;;;;;5060627;28;20218;-77
2023/03/13 07:49:46;;;;;;;21.83;4.73;;;8.80;99.90;;;;;;5059042;28;20203;-76
2023/03/13 07:52:12;;;;;;;21.17;4.70;;;8.90;99.90;;;;;;5060431;28;20654;-77
2023/03/13 07:54:38;;;;;;;11.93;4.20;;;8.90;99.90;;;;;;5062869;28;20207;-76
2023/03/13 07:57:03;;;;;;;16.40;4.57;;;8.90;99.90;;;;;;5061930;28;20214;-77
2023/03/13 07:59:29;;;;;;;20.90;4.50;;;9.00;99.90;;;;;;5057864;28;20211;-75
2023/03/13 08:01:55;;;;;;;15.53;4.47;;;9.00;99.90;;;;;;5048469;28;20183;-76
2023/03/13 08:04:20;;;;;;;19.27;5.13;;;9.00;99.90;;;;;;5067805;28;20188;-76
2023/03/13 08:06:46;;;;;;;21.30;4.47;;;9.00;99.90;;;;;;5062313;28;20248;-77
2023/03/13 08:09:12;;;;;;;15.60;4.13;;;9.00;99.90;;;;;;5059750;28;20348;-76
2023/03/13 08:11:43;;;;;;;16.87;4.20;;;9.00;99.90;;;;;;5050770;28;20706;-76
2023/03/13 08:14:09;;;;;;;21.90;4.63;;;9.00;99.90;;;;;;5065208;28;20298;-76
2023/03/13 08:16:35;;;;;;;16.90;4.77;;;9.00;99.90;;;;;;5064198;28;20311;-76
2023/03/13 08:19:39;;;;;;;13.80;3.50;;;9.00;99.90;;;;;;5051019;28;20647;-78
2023/03/13 08:22:04;;;;;;;15.23;4.00;;;9.00;99.90;;;;;;5063900;28;20218;-77
2023/03/13 08:24:30;;;;;;;17.47;4.83;;;9.00;99.90;;;;;;5065596;28;20296;-77
2023/03/13 08:26:56;;;;;;;16.27;4.60;;;9.00;99.90;;;;;;5061038;28;20211;-77
2023/03/13 08:29:21;;;;;;;16.20;5.43;;;9.00;99.90;;;;;;5050139;28;20497;-77
2023/03/13 08:31:50;;;;;;;19.90;4.77;;;9.00;99.90;;;;;;5049239;28;20186;-75
2023/03/13 08:34:16;;;;;;;17.67;4.80;;;9.10;99.90;;;;;;5045989;28;20218;-78
2023/03/13 08:36:42;;;;;;;13.83;4.47;;;9.10;99.90;;;;;;5065812;28;20207;-77
2023/03/13 08:39:26;;;;;;;16.10;3.90;;;9.10;99.90;;;;;;5048497;28;20216;-77
2023/03/13 08:41:52;;;;;;;15.03;4.07;;;9.00;99.90;;;;;;5049277;28;20215;-77
2023/03/13 08:44:19;;;;;;;15.83;4.67;;;9.10;99.90;;;;;;5066726;28;20277;-77
2023/03/13 08:46:45;;;;;;;13.13;3.90;;;9.10;99.90;;;;;;5051552;28;20211;-78
2023/03/13 08:49:11;;;;;;;15.17;4.43;;;9.20;99.90;;;;;;5066599;28;20716;-79
2023/03/13 08:51:38;;;;;;;15.93;3.73;;;9.20;99.90;;;;;;5049753;28;20935;-77
2023/03/13 08:54:04;;;;;;;17.47;3.73;;;9.20;99.90;;;;;;5061993;28;20701;-77
2023/03/13 08:56:31;;;;;;;14.43;4.57;;;9.20;99.90;;;;;;5052674;28;20768;-78
2023/03/13 08:58:59;;;;;;;12.10;3.83;;;9.30;99.90;;;;;;5053967;28;20203;-78
2023/03/13 09:01:28;;;;;;;14.37;3.70;;;9.30;99.90;;;;;;5072568;28;20214;-77
2023/03/13 09:03:54;;;;;;;16.27;3.87;;;9.30;99.90;;;;;;5061365;28;20249;-77
2023/03/13 09:06:19;;;;;;;12.80;3.47;;;9.30;99.90;;;;;;5067179;28;20259;-78
2023/03/13 09:08:45;;;;;;;7.70;3.07;;;9.30;99.90;;;;;;5055982;28;20226;-78
2023/03/13 09:11:17;;;;;;;14.13;4.23;;;9.40;99.90;;;;;;5050813;28;20230;-77
2023/03/13 09:13:45;;;;;;;9.80;3.23;;;9.40;99.90;;;;;;5067073;28;20229;-78
2023/03/13 09:16:14;;;;;;;13.83;3.90;;;9.50;99.90;;;;;;5066669;28;20230;-79
2023/03/13 09:18:40;;;;;;;18.00;4.47;;;9.60;99.90;;;;;;5046638;28;20318;-78
2023/03/13 09:21:17;;;;;;;13.77;3.40;;;9.60;99.90;;;;;;5052654;28;20243;-77
2023/03/13 09:23:43;;;;;;;9.03;4.07;;;9.60;99.90;;;;;;5067347;28;20313;-76
2023/03/13 09:26:09;;;;;;;13.43;3.67;;;9.60;99.90;;;;;;5053251;28;20211;-76
2023/03/13 09:28:36;;;;;;;10.23;3.50;;;9.70;99.90;;;;;;5071954;28;20179;-77
2023/03/13 09:31:26;;;;;;;10.40;3.40;;;9.70;99.90;;;;;;5056709;28;20227;-76
2023/03/13 09:33:52;;;;;;;9.90;4.03;;;9.70;99.90;;;;;;5058166;28;20281;-76
2023/03/13 09:36:19;;;;;;;12.23;3.30;;;9.70;99.90;;;;;;5079696;28;20290;-77
2023/03/13 09:38:45;;;;;;;9.97;3.47;;;9.70;99.90;;;;;;5064260;28;20222;-76
2023/03/13 09:41:22;;;;;;;11.33;2.90;;;9.70;99.90;;;;;;5052992;28;20218;-78
2023/03/13 09:44:06;;;;;;;15.60;3.37;;;9.70;99.90;;;;;;5074202;28;20675;-76
2023/03/13 09:47:07;;;;;;;11.23;3.37;;;9.70;99.90;;;;;;5056934;28;20293;-77
2023/03/13 09:49:41;;;;;;;12.67;3.27;;;9.80;99.90;;;;;;4996025;28;20228;-77
2023/03/13 09:52:28;;;;;;;9.87;3.30;;;9.90;99.90;;;;;;5049910;28;20276;-76
2023/03/13 09:55:00;;;;;;;9.03;3.23;;;9.90;99.90;;;;;;5069080;28;20217;-76
2023/03/13 09:57:58;;;;;;;7.77;3.80;;;10.00;99.90;;;;;;5070139;28;20203;-76
2023/03/13 10:00:33;;;;;;;11.53;3.50;;;10.00;99.90;;;;;;5064109;28;20282;-76
2023/03/13 10:03:04;;;;;;;6.83;2.87;;;10.10;99.90;;;;;;5052927;28;20205;-76
2023/03/13 10:05:31;;;;;;;10.03;2.60;;;10.10;99.90;;;;;;5067755;28;20207;-77
2023/03/13 10:08:17;;;;;;;5.93;2.40;;;10.20;99.90;;;;;;5068362;28;20262;-77
2023/03/13 10:10:52;;;;;;;9.30;2.53;;;10.20;99.90;;;;;;5069057;28;20190;-76
2023/03/13 10:13:45;;;;;;;8.03;2.60;;;10.20;99.90;;;;;;5066539;28;20206;-77
2023/03/13 10:16:16;;;;;;;8.03;2.80;;;10.30;99.90;;;;;;5047012;28;20234;-76
2023/03/13 10:18:50;;;;;;;7.60;2.20;;;10.30;99.90;;;;;;5066860;28;20278;-77
2023/03/13 10:21:21;;;;;;;10.30;2.73;;;10.30;99.90;;;;;;5052638;28;20237;-78
2023/03/13 10:23:52;;;;;;;8.90;2.43;;;10.40;99.90;;;;;;5048715;28;20203;-76
2023/03/13 10:26:28;;;;;;;7.97;2.57;;;10.50;99.90;;;;;;5064941;28;20211;-75
2023/03/13 10:28:56;;;;;;;7.17;2.70;;;10.60;99.90;;;;;;5050124;28;20179;-76
2023/03/13 10:31:31;;;;;;;7.33;3.03;;;10.70;99.90;;;;;;5053145;28;20182;-76
2023/03/13 10:34:11;;;;;;;6.17;2.57;;;10.80;99.90;;;;;;5066884;28;20673;-76
2023/03/13 10:36:46;;;;;;;6.90;2.37;;;10.90;99.90;;;;;;5069140;28;20290;-76
2023/03/13 10:39:23;;;;;;;6.83;2.50;;;11.00;99.90;;;;;;5067963;28;20210;-75
2023/03/13 10:41:55;;;;;;;8.17;2.40;;;11.00;99.90;;;;;;5071842;28;20858;-76
2023/03/13 10:44:23;;;;;;;7.93;2.47;;;11.10;99.90;;;;;;5052428;28;20215;-76
2023/03/13 10:46:50;;;;;;;4.83;2.07;;;11.30;99.90;;;;;;5072635;28;20266;-76
2023/03/13 10:49:18;;;;;;;7.27;2.27;;;11.50;99.90;;;;;;5072019;28;20213;-77
2023/03/13 10:51:50;;;;;;;5.27;2.30;;;11.60;99.90;;;;;;5055061;28;20206;-76
2023/03/13 10:54:23;;;;;;;7.07;1.90;;;11.80;99.90;;;;;;5072845;28;20207;-76
2023/03/13 10:57:10;;;;;;;5.10;2.07;;;12.00;99.90;;;;;;5071295;28;20203;-76
2023/03/13 10:59:42;;;;;;;5.77;2.27;;;12.10;99.90;;;;;;5071552;28;20206;-75
2023/03/13 11:02:26;;;;;;;6.50;2.00;;;12.30;99.90;;;;;;5072571;28;20218;-76
2023/03/13 11:04:54;;;;;;;5.63;2.00;;;12.30;99.90;;;;;;5076700;28;20175;-76
2023/03/13 11:07:32;;;;;;;5.43;1.80;;;12.40;99.90;;;;;;5054576;28;20203;-77
2023/03/13 11:10:28;;;;;;;7.03;1.93;;;12.60;99.90;;;;;;5052836;28;20215;-76
2023/03/13 11:12:56;;;;;;;5.37;2.40;;;12.80;99.90;;;;;;5053126;28;20206;-77
2023/03/13 11:15:44;;;;;;;6.40;2.30;;;12.80;99.90;;;;;;5057024;28;20223;-77
2023/03/13 11:18:15;;;;;;;5.23;1.80;;;13.00;99.90;;;;;;5052710;28;20235;-77
2023/03/13 11:20:46;;;;;;;8.83;2.53;;;13.20;99.90;;;;;;5049535;28;20210;-78
2023/03/13 11:23:35;;;;;;;3.80;2.27;;;13.50;99.90;;;;;;5053956;28;20216;-78
2023/03/13 11:26:10;;;;;;;6.93;2.37;;;13.70;99.90;;;;;;5061299;28;20200;-76
2023/03/13 11:28:55;;;;;;;6.00;2.53;;;13.90;99.90;;;;;;5062144;28;20171;-78
2023/03/13 11:31:27;;;;;;;4.27;1.63;;;14.00;99.90;;;;;;5052276;28;20218;-78
2023/03/13 11:34:05;;;;;;;6.00;1.80;;;13.90;99.90;;;;;;5052480;28;20252;-77
2023/03/13 11:36:35;;;;;;;5.20;2.40;;;13.90;99.90;;;;;;5045583;28;20276;-76
2023/03/13 11:39:31;;;;;;;3.93;2.43;;;13.90;99.90;;;;;;5048636;28;20203;-75
2023/03/13 11:42:34;;;;;;;3.22;1.90;;;13.90;99.90;;;;;;5060629;28;20206;-77
2023/03/13 11:45:38;;;;;;;4.55;1.88;;;14.10;99.90;;;;;;5045945;28;20237;-75
2023/03/13 11:48:24;;;;;;;2.55;1.73;;;14.20;99.90;;;;;;5058464;28;20207;-75
2023/03/13 11:51:19;;;;;;;3.97;1.75;;;14.20;99.90;;;;;;5067658;28;20807;-77
2023/03/13 11:54:12;;;;;;;3.00;1.30;;;14.20;99.90;;;;;;5051252;28;20693;-79
2023/03/13 11:56:49;;;;;;;2.22;1.50;;;14.10;99.90;;;;;;5068712;28;20215;-77
2023/03/13 11:59:35;;;;;;;4.43;1.52;;;13.90;99.90;;;;;;5050246;28;20777;-77
2023/03/13 12:02:26;;;;;;;2.65;1.58;;;13.80;99.90;;;;;;5059076;28;20194;-74
2023/03/13 12:05:02;;;;;;;3.65;1.73;;;13.80;99.90;;;;;;5037122;28;20619;-78
2023/03/13 12:08:08;;;;;;;1.77;1.15;;;13.80;99.90;;;;;;5051343;28;20167;-74
2023/03/13 12:10:40;;;;;;;5.47;1.92;;;13.90;99.90;;;;;;5058837;28;20204;-69
2023/03/13 12:13:30;;;;;;;3.60;0.80;;;14.00;99.90;;;;;;5043481;28;20210;-74
2023/03/13 12:16:02;;;;;;;3.08;1.20;;;14.20;99.90;;;;;;5065103;28;20206;-75
2023/03/13 12:18:37;;;;;;;5.70;2.35;;;14.20;99.90;;;;;;5068738;28;20207;-75
2023/03/13 12:21:35;;;;;;;3.03;1.23;;;14.30;99.90;;;;;;5051898;28;20202;-75
2023/03/13 12:24:10;;;;;;;2.70;1.00;;;14.30;99.90;;;;;;5064092;28;20199;-76
2023/03/13 12:26:45;;;;;;;2.35;1.45;;;14.30;99.90;;;;;;5042533;28;20251;-75
2023/03/13 12:29:48;;;;;;;2.28;1.27;;;14.40;99.90;;;;;;5065258;28;20254;-73
2023/03/13 12:32:21;;;;;;;2.50;1.40;;;14.30;99.90;;;;;;5065006;28;20199;-74
2023/03/13 12:35:07;;;;;;;3.40;1.83;;;14.30;99.90;;;;;;5064678;28;20211;-74
2023/03/13 12:37:54;;;;;;;3.60;1.70;;;14.50;99.90;;;;;;5064058;28;20253;-73
2023/03/13 12:40:27;;;;;;;2.13;1.20;;;14.80;99.90;;;;;;5050371;28;20613;-74
2023/03/13 12:43:04;;;;;;;2.15;1.00;;;14.90;99.90;;;;;;5048836;28;20220;-73
2023/03/13 12:45:32;;;;;;;1.98;1.20;;;14.90;99.90;;;;;;5069136;28;20253;-70
2023/03/13 12:48:34;;;;;;;1.63;1.25;;;14.90;99.90;;;;;;5065666;28;20207;-70
2023/03/13 12:51:13;;;;;;;1.00;0.75;;;15.20;99.90;;;;;;5045198;28;20848;-73
2023/03/13 12:53:39;;;;;;;2.67;1.13;;;15.40;99.90;;;;;;5062737;28;20238;-73
2023/03/13 12:56:28;;;;;;;2.38;0.80;;;15.60;99.90;;;;;;5046923;28;20651;-70
2023/03/13 12:59:05;;;;;;;2.42;1.55;;;15.60;99.90;;;;;;5062630;28;20197;-72
2023/03/13 13:01:42;;;;;;;4.68;1.65;;;15.60;99.90;;;;;;5065400;28;20225;-74
2023/03/13 13:04:14;;;;;;;3.25;1.58;;;15.60;99.90;;;;;;5064230;28;20289;-72